METAR Data
IDs: Format: Raw Decoded Include TAF

Data at: 1827 UTC 21 Sep 2018

KPYX 211815Z AUTO 04014G21KT 10SM OVC021 17/13 A3024 RMK AO2 T01660131
KPYX 211755Z AUTO 05016G25KT 10SM OVC021 16/14 A3024 RMK AO2 60008 T01610135 10202 20156
KPYX 211735Z AUTO 05020G27KT 7SM SCT010 OVC018 16/14 A3024 RMK AO2 T01570144
KPYX 211715Z AUTO 05016G24KT 10SM SCT004 BKN009 OVC014 17/16 A3024 RMK AO2 T01650157
KPYX 211655Z AUTO 04019G25KT 2 1/2SM BKN006 OVC009 17/16 A3022 RMK AO2 T01660158
KPYX 211635Z AUTO 04019G26KT 1 1/2SM OVC004 17/16 A3021 RMK AO2 T01690161
KPYX 211615Z AUTO 03022G26KT 1 1/2SM OVC002 18/17 A3019 RMK AO2 T01750166
KPYX 211555Z AUTO 02015G25KT 1 1/4SM OVC002 18/17 A3018 RMK AO2 T01820173
KPYX 211535Z AUTO 02016G25KT 4SM OVC004 19/18 A3016 RMK AO2 T01930184
KPYX 211515Z AUTO 03015G25KT 10SM OVC004 20/19 A3015 RMK AO2 T01960187
KPYX 211455Z AUTO 03015G20KT 7SM BKN004 OVC009 20/19 A3014 RMK AO2 P0001 60008 T01980189
KPYX 211435Z AUTO 03016G24KT 10SM OVC006 20/20 A3014 RMK AO2 T02020195
KPYX 211415Z AUTO 02016G20KT 10SM BKN008 BKN030 BKN041 20/19 A3014 RMK AO2 T02000192
KPYX 211355Z AUTO 03010KT 10SM SCT004 BKN040 OVC110 20/19 A3013 RMK AO2 T02000192
KPYX 211335Z AUTO 03008KT 7SM BKN004 BKN010 OVC110 20/19 A3013 RMK AO2 T01980190
KPYX 211315Z AUTO 02009KT 10SM SCT004 BKN008 OVC100 20/19 A3012 RMK AO2 T01950186
KPYX 211255Z AUTO 01006KT 10SM SCT070 BKN085 OVC095 19/19 A3011 RMK AO2 P0007 T01920185
KPYX 211235Z AUTO 03008KT 10SM SCT004 BKN036 OVC095 19/18 A3010 RMK AO2 P0007 T01920184
KPYX 211215Z AUTO 03008KT 7SM SCT016 SCT030 OVC043 19/18 A3009 RMK AO2 P0005 T01920184
KPYX 211155Z AUTO 06008KT 7SM OVC043 19/18 A3009 RMK AO2 P0010 60015 70095 T01920184 10210 20192
KPYX 211135Z AUTO 04010KT 7SM SCT009 BKN036 OVC050 19/19 A3008 RMK AO2 P0005 T01940185
KPYX 211115Z AUTO 04012KT 7SM BKN007 BKN017 OVC060 20/19 A3007 RMK AO2 P0001 T01960187
KPYX 211055Z AUTO 02007KT 7SM SCT033 BKN055 BKN065 21/20 A3006 RMK AO2 P0005 T02090200
KPYX 211040Z AUTO 00000KT 5SM SCT041 BKN070 OVC100 21/20 A3003 RMK AO2 P0003 T02080200
KPYX 211015Z AUTO 00000KT 10SM BKN070 OVC080 21/20 A3001 RMK AO2 P0001 T02060197
KPYX 210955Z AUTO 00000KT 10SM SCT045 BKN070 OVC095 21/20 A3001 RMK AO2 T02070199
KPYX 210935Z AUTO 17003KT 10SM SCT046 SCT065 BKN085 21/20 A3001 RMK AO2 T02070198
KPYX 210915Z AUTO 13003KT 10SM SCT007 SCT013 OVC085 21/20 A3001 RMK AO2 T02060197
KPYX 210855Z AUTO 00000KT 10SM OVC095 21/20 A3000 RMK AO2 T02050195
KPYX 210835Z AUTO 00000KT 10SM BKN095 BKN110 20/20 A2998 RMK AO2 T02040195
KPYX 210815Z AUTO 00000KT 10SM BKN110 20/20 A2998 RMK AO2 T02030195
KPYX 210755Z AUTO 07004KT 10SM SCT095 SCT110 21/20 A2997 RMK AO2 T02050195
KPYX 210735Z AUTO 10004KT 10SM SCT017 SCT110 21/20 A2997 RMK AO2 T02050195
KPYX 210715Z AUTO 10008KT 10SM SCT006 BKN017 BKN120 21/20 A2997 RMK AO2 T02050195
KPYX 210655Z AUTO 09007KT 10SM SCT006 SCT021 SCT120 21/20 A2997 RMK AO2 T02060196
KPYX 210635Z AUTO 08005KT 10SM SCT006 SCT120 21/20 A2996 RMK AO2 T02060196
KPYX 210615Z AUTO 10004KT 10SM BKN006 BKN110 21/20 A2996 RMK AO2 T02060195
KPYX 210555Z AUTO 13007KT 10SM SCT006 BKN011 BKN120 21/20 A2996 RMK AO2 P0001 60080 T02050195 10284 20205 403460205
KPYX 210535Z AUTO 14011KT 10SM SCT070 SCT120 21/19 A2995 RMK AO2 P0001 T02050193
KPYX 210515Z AUTO 11008KT 10SM SCT048 BKN080 OVC110 21/19 A2994 RMK AO2 P0001 T02050191
KPYX 210455Z AUTO 00000KT 10SM SCT042 BKN060 OVC080 21/19 A2995 RMK AO2 P0007 T02060193
KPYX 210435Z AUTO 00000KT 5SM SCT042 BKN050 OVC075 21/19 A2995 RMK AO2 P0005 T02060190
KPYX 210415Z AUTO 02005KT 7SM SCT038 SCT060 OVC075 21/19 A2996 RMK AO2 P0001 T02070190
KPYX 210355Z AUTO 19012G15KT 7SM SCT033 BKN040 OVC110 21/19 A2994 RMK AO2 P0010 T02070190
KPYX 210335Z AUTO 27005KT 7SM SCT029 SCT035 BKN044 21/19 A2996 RMK AO2 P0006 T02060190
KPYX 210315Z AUTO 35006KT 7SM SCT019 BKN037 OVC065 21/19 A2995 RMK AO2 P0002 T02050190
KPYX 210255Z AUTO 01006KT 4SM SCT016 BKN026 OVC060 21/19 A2995 RMK AO2 P0029 60061 T02050190
KPYX 210235Z AUTO 30012KT 1 1/4SM BKN015 BKN033 OVC060 21/19 A2994 RMK AO2 VIS 1/2V5 P0023 T02060190
KPYX 210215Z AUTO 30009KT 10SM SCT015 BKN070 OVC110 21/19 A2993 RMK AO2 T02060186
KPYX 210155Z AUTO 34009G20KT 1SM BKN012 OVC022 21/18 A2990 RMK AO2 P0031 T02070180
KPYX 210135Z AUTO 34006KT 10SM BKN070 BKN100 OVC120 22/19 A2989 RMK AO2 T02190186
KPYX 210115Z AUTO 36009KT 10SM SCT055 BKN070 OVC090 23/18 A2988 RMK AO2 T02250183
KPYX 210055Z AUTO 34012KT 7SM SCT055 BKN070 OVC120 25/17 A2988 RMK AO2 T02480166
KPYX 210035Z AUTO 35014G17KT 10SM BKN080 OVC090 26/16 A2986 RMK AO2 T02560158
KPYX 210015Z AUTO 36011G18KT 10SM BKN090 26/16 A2985 RMK AO2 T02630159
KPYX 202355Z AUTO 31006G12KT 10SM SCT080 30/15 A2984 RMK AO2 T02970146 10346 20297
KPYX 202335Z AUTO 18013G20KT 10SM CLR 31/13 A2982 RMK AO2 T03120127
KPYX 202315Z AUTO 19015G21KT 10SM SCT080 32/12 A2982 RMK AO2 T03170121
KPYX 202255Z AUTO 19018G24KT 10SM SCT080 33/12 A2981 RMK AO2 T03260124
KPYX 202235Z AUTO 19017G24KT 10SM SCT090 33/13 A2981 RMK AO2 T03330125
KPYX 202215Z AUTO 19016G23KT 10SM SCT090 33/13 A2981 RMK AO2 T03310129
KPYX 202155Z AUTO 20013G22KT 10SM SCT100 33/12 A2980 RMK AO2 T03310123
KPYX 202135Z AUTO 19017G25KT 10SM SCT080 SCT100 33/12 A2979 RMK AO2 T03300123
KPYX 202115Z AUTO 19018G25KT 10SM SCT080 34/12 A2980 RMK AO2 T03440124
KPYX 202055Z AUTO 21019G24KT 10SM SCT080 34/13 A2981 RMK AO2 T03430126
KPYX 202035Z AUTO 20017G28KT 10SM SCT080 34/12 A2981 RMK AO2 T03410118
KPYX 202015Z AUTO 20019G26KT 10SM CLR 34/12 A2982 RMK AO2 T03420124
KPYX 201955Z AUTO 19021G28KT 10SM CLR 34/12 A2983 RMK AO2 T03370123
KPYX 201935Z AUTO 21013G27KT 10SM CLR 34/13 A2984 RMK AO2 T03360130
KPYX 201915Z AUTO 20018G27KT 10SM CLR 33/13 A2985 RMK AO2 T03310127
KPYX 201855Z AUTO 19018G27KT 10SM CLR 33/14 A2986 RMK AO2 T03260137
KPYX 201835Z AUTO 21018G27KT 10SM CLR 32/14 A2987 RMK AO2 T03230137
KPYX 201815Z AUTO 21019G23KT 10SM CLR 32/15 A2988 RMK AO2 T03190147
KPYX 201755Z AUTO 21020G25KT 10SM CLR 31/15 A2989 RMK AO2 T03140151 10314 20207
KPYX 201735Z AUTO 21014G25KT 10SM CLR 31/16 A2989 RMK AO2 T03070158
KPYX 201715Z AUTO 21021G26KT 10SM CLR 30/16 A2990 RMK AO2 T03020158
KPYX 201655Z AUTO 22021G26KT 10SM CLR 30/16 A2991 RMK AO2 T02950160
KPYX 201635Z AUTO 21018G25KT 10SM CLR 29/17 A2991 RMK AO2 T02880165
KPYX 201615Z AUTO 21017G23KT 10SM CLR 28/17 A2991 RMK AO2 T02810171
KPYX 201555Z AUTO 20018G25KT 10SM CLR 28/18 A2991 RMK AO2 T02760175
KPYX 201535Z AUTO 20020G25KT 10SM CLR 27/17 A2992 RMK AO2 T02650174
KPYX 201515Z AUTO 21020G24KT 10SM CLR 26/18 A2992 RMK AO2 T02580175
KPYX 201455Z AUTO 21018G24KT 10SM CLR 25/18 A2992 RMK AO2 T02520176
KPYX 201435Z AUTO 21019G25KT 10SM CLR 24/18 A2992 RMK AO2 T02440175
KPYX 201415Z AUTO 21014G18KT 10SM CLR 24/18 A2992 RMK AO2 T02370177
KPYX 201355Z AUTO 20012G16KT 10SM CLR 22/18 A2992 RMK AO2 T02240177
KPYX 201335Z AUTO 19009KT 10SM CLR 22/18 A2992 RMK AO2 T02170175
KPYX 201315Z AUTO 19008KT 10SM CLR 21/18 A2992 RMK AO2 T02100175
KPYX 201255Z AUTO 19006KT 10SM CLR 21/17 A2991 RMK AO2 T02070172
KPYX 201235Z AUTO 20009KT 10SM CLR 21/17 A2990 RMK AO2 T02090172
KPYX 201215Z AUTO 18007KT 10SM CLR 21/17 A2990 RMK AO2 T02090172
KPYX 201155Z AUTO 18009KT 10SM CLR 21/17 A2989 RMK AO2 T02120172 10258 20212
KPYX 201135Z AUTO 18009KT 10SM CLR 22/17 A2989 RMK AO2 T02150173
KPYX 201115Z AUTO 18009KT 10SM CLR 22/17 A2988 RMK AO2 T02150171
KPYX 201055Z AUTO 18008KT 10SM CLR 22/17 A2987 RMK AO2 T02200172
KPYX 201035Z AUTO 19011KT 10SM CLR 22/17 A2986 RMK AO2 T02230172
KPYX 201015Z AUTO 19011KT 10SM CLR 23/17 A2986 RMK AO2 T02270172
KPYX 200955Z AUTO 19013G18KT 10SM CLR 23/17 A2986 RMK AO2 T02300172
KPYX 200935Z AUTO 19014G20KT 10SM CLR 24/17 A2986 RMK AO2 T02350173
KPYX 200915Z AUTO 19014KT 10SM CLR 24/17 A2986 RMK AO2 T02360172
KPYX 200855Z AUTO 19013G19KT 10SM CLR 24/17 A2986 RMK AO2 T02390172
KPYX 200835Z AUTO 18013G18KT 10SM CLR 24/17 A2986 RMK AO2 T02410171
KPYX 200815Z AUTO 18013G17KT 10SM CLR 24/17 A2986 RMK AO2 T02430172
KPYX 200755Z AUTO 19014G19KT 10SM CLR 24/17 A2988 RMK AO2 T02430171
KPYX 200735Z AUTO 19014G20KT 10SM CLR 25/17 A2988 RMK AO2 T02450171
KPYX 200715Z AUTO 18014G19KT 10SM CLR 25/17 A2988 RMK AO2 T02480170
KPYX 200655Z AUTO 19012G18KT 10SM CLR 25/17 A2988 RMK AO2 T02500170
KPYX 200635Z AUTO 19014G20KT 10SM CLR 25/17 A2989 RMK AO2 T02520170